createdAt,value
2018-04-18T00:01:36.412Z,64.30
2018-04-18T00:04:05.568Z,64.30
2018-04-18T00:06:34.761Z,64.90
2018-04-18T00:09:05.528Z,64.80
2018-04-18T00:11:34.684Z,64.80
2018-04-18T00:14:03.767Z,63.80
2018-04-18T00:16:32.888Z,63.50
2018-04-18T00:19:02.002Z,64.00
2018-04-18T00:21:31.081Z,64.50
2018-04-18T00:24:01.041Z,65.70
2018-04-18T00:26:30.129Z,65.70
2018-04-18T00:28:59.248Z,65.70
2018-04-18T00:31:28.330Z,65.60
2018-04-18T00:33:58.201Z,66.60
2018-04-18T00:36:27.323Z,66.60
2018-04-18T00:38:56.399Z,66.40
2018-04-18T00:41:25.470Z,66.20
2018-04-18T00:43:54.550Z,66.20
2018-04-18T00:46:23.627Z,66.40
2018-04-18T00:48:52.700Z,68.60
2018-04-18T00:51:21.800Z,68.70
2018-04-18T00:53:50.908Z,68.70
2018-04-18T00:56:20.080Z,68.80
2018-04-18T00:58:49.180Z,68.80
2018-04-18T01:01:18.289Z,68.80
2018-04-18T01:03:47.363Z,68.80
2018-04-18T01:06:16.435Z,68.80
2018-04-18T01:08:45.535Z,69.10
2018-04-18T01:11:14.614Z,69.70
2018-04-18T01:13:44.451Z,69.70
2018-04-18T01:16:14.284Z,70.10
2018-04-18T01:18:43.395Z,70.00
2018-04-18T01:21:12.459Z,70.10
2018-04-18T01:23:41.566Z,70.70
2018-04-18T01:26:10.688Z,70.70
2018-04-18T01:28:39.789Z,70.70
2018-04-18T01:31:08.895Z,70.70
2018-04-18T01:33:37.988Z,70.70
2018-04-18T01:36:07.131Z,70.30
2018-04-18T01:38:36.209Z,70.40
2018-04-18T01:41:05.280Z,70.60
2018-04-18T01:43:35.111Z,70.50
2018-04-18T01:46:04.184Z,70.50
2018-04-18T01:48:33.259Z,70.50
2018-04-18T01:51:03.148Z,70.50
2018-04-18T01:53:33.056Z,70.50
2018-04-18T01:56:02.157Z,70.50
2018-04-18T01:58:32.000Z,70.70
2018-04-18T02:01:01.071Z,71.40
2018-04-18T02:03:30.131Z,70.60
2018-04-18T02:06:00.001Z,71.10
2018-04-18T02:08:29.108Z,71.10
2018-04-18T02:10:58.247Z,71.10
2018-04-18T02:13:27.315Z,71.10
2018-04-18T02:15:56.390Z,71.30
2018-04-18T02:18:25.485Z,71.60
2018-04-18T02:20:54.657Z,72.20
2018-04-18T02:23:23.752Z,72.60
2018-04-18T02:25:52.851Z,72.60
2018-04-18T02:28:22.692Z,72.70
2018-04-18T02:30:51.780Z,72.60
2018-04-18T02:33:21.620Z,72.60
2018-04-18T02:35:50.688Z,72.50
2018-04-18T02:38:19.785Z,72.60
2018-04-18T02:40:48.897Z,75.00
2018-04-18T02:43:17.960Z,75.50
2018-04-18T02:45:47.040Z,75.60
2018-04-18T02:48:16.138Z,75.00
2018-04-18T02:50:45.429Z,74.70
2018-04-18T02:53:14.501Z,74.00
2018-04-18T02:55:44.341Z,74.10
2018-04-18T02:58:13.418Z,74.10
2018-04-18T03:00:42.520Z,73.70
2018-04-18T03:03:11.620Z,72.80
2018-04-18T03:05:40.752Z,73.20
2018-04-18T03:08:10.652Z,72.50
2018-04-18T03:10:39.758Z,72.40
2018-04-18T03:13:08.860Z,72.50
2018-04-18T03:15:38.732Z,72.50
2018-04-18T03:18:08.611Z,72.90
2018-04-18T03:20:37.744Z,72.90
2018-04-18T03:23:06.844Z,72.60
2018-04-18T03:25:35.940Z,72.20
2018-04-18T03:28:05.023Z,72.10
2018-04-18T03:30:34.384Z,72.00
2018-04-18T03:33:03.535Z,72.20
2018-04-18T03:35:33.372Z,72.60
2018-04-18T03:38:03.296Z,72.70
2018-04-18T03:40:33.165Z,72.60
2018-04-18T03:43:02.231Z,72.60
2018-04-18T03:45:32.139Z,72.50
2018-04-18T03:48:01.203Z,72.40
2018-04-18T03:50:30.296Z,72.40
2018-04-18T03:52:59.363Z,72.40
2018-04-18T03:55:28.461Z,72.50
2018-04-18T03:57:57.568Z,72.70
2018-04-18T04:00:26.664Z,72.00
2018-04-18T04:02:55.742Z,71.60
2018-04-18T04:05:24.845Z,71.70
2018-04-18T04:07:53.968Z,71.40
2018-04-18T04:10:23.066Z,71.50
2018-04-18T04:12:52.929Z,71.80
2018-04-18T04:15:22.071Z,71.80
2018-04-18T04:18:09.035Z,72.30
2018-04-18T04:20:56.618Z,72.80
2018-04-18T04:23:43.678Z,73.50
2018-04-18T04:26:12.809Z,73.30
2018-04-18T04:28:42.676Z,73.20
2018-04-18T04:31:11.836Z,73.80
2018-04-18T04:33:40.931Z,72.90
2018-04-18T04:36:10.068Z,72.70
2018-04-18T04:38:39.210Z,73.00
2018-04-18T04:41:08.312Z,73.10
2018-04-18T04:43:37.495Z,72.80
2018-04-18T04:46:06.560Z,72.40
2018-04-18T04:48:35.643Z,72.60
2018-04-18T04:51:04.742Z,72.60
2018-04-18T04:53:34.746Z,71.80
2018-04-18T04:56:04.481Z,71.70
2018-04-18T04:58:34.364Z,70.80
2018-04-18T05:01:03.468Z,70.80
2018-04-18T05:03:32.634Z,70.40
2018-04-18T05:06:01.751Z,70.60
2018-04-18T05:08:31.621Z,72.30
2018-04-18T05:11:00.749Z,72.30
2018-04-18T05:13:29.844Z,73.00
2018-04-18T05:15:58.953Z,73.50
2018-04-18T05:18:28.026Z,74.70
2018-04-18T05:20:57.887Z,75.70
2018-04-18T05:23:26.980Z,75.70
2018-04-18T05:25:56.085Z,75.50
2018-04-18T05:28:25.198Z,75.10
2018-04-18T05:30:54.270Z,74.40
2018-04-18T05:33:24.158Z,75.70
2018-04-18T05:35:53.367Z,75.70
2018-04-18T05:38:22.469Z,75.70
2018-04-18T05:40:51.537Z,76.50
2018-04-18T05:43:20.676Z,77.20
2018-04-18T05:45:49.781Z,77.60
2018-04-18T05:48:19.627Z,76.70
2018-04-18T05:50:48.735Z,76.70
2018-04-18T05:53:17.821Z,76.00
2018-04-18T05:55:47.723Z,76.10
2018-04-18T05:58:16.855Z,75.90
2018-04-18T06:00:46.735Z,76.50
2018-04-18T06:03:15.841Z,76.40
2018-04-18T06:05:44.991Z,76.00
2018-04-18T06:08:14.073Z,75.90
2018-04-18T06:10:43.182Z,76.00
2018-04-18T06:13:12.268Z,76.00
2018-04-18T06:15:41.456Z,74.00
2018-04-18T06:18:10.554Z,73.70
2018-04-18T06:20:40.446Z,72.20
2018-04-18T06:23:09.579Z,72.10
2018-04-18T06:25:38.688Z,72.10
2018-04-18T06:28:07.832Z,70.90
2018-04-18T06:30:37.683Z,69.60
2018-04-18T06:33:06.775Z,69.60
2018-04-18T06:35:36.714Z,68.90
2018-04-18T06:38:05.819Z,68.00
2018-04-18T06:40:34.904Z,67.20
2018-04-18T06:43:03.994Z,66.40
2018-04-18T06:45:33.111Z,66.60
2018-04-18T06:48:02.194Z,65.70
2018-04-18T06:50:31.308Z,66.20
2018-04-18T06:53:00.401Z,65.20
2018-04-18T06:55:29.486Z,64.00
2018-04-18T06:57:59.359Z,63.20
2018-04-18T07:00:28.457Z,63.10
2018-04-18T07:02:57.608Z,62.40
2018-04-18T07:05:26.690Z,61.80
2018-04-18T07:07:55.797Z,60.80
2018-04-18T07:10:24.976Z,61.00
2018-04-18T07:12:54.097Z,61.00
2018-04-18T07:15:23.269Z,60.70
2018-04-18T07:17:53.148Z,59.60
2018-04-18T07:20:22.294Z,59.60
2018-04-18T07:22:51.376Z,59.10
2018-04-18T07:25:20.458Z,57.10
2018-04-18T07:27:49.573Z,57.50
2018-04-18T07:30:18.748Z,56.70
2018-04-18T07:32:47.866Z,55.60
2018-04-18T07:35:17.719Z,54.70
2018-04-18T07:37:46.954Z,54.70
2018-04-18T07:40:16.039Z,54.40
2018-04-18T07:42:45.178Z,55.10
2018-04-18T07:45:14.350Z,54.20
2018-04-18T07:47:44.199Z,52.40
2018-04-18T07:50:13.309Z,52.30
2018-04-18T07:52:42.390Z,52.00
2018-04-18T07:55:12.230Z,51.20
2018-04-18T07:57:42.116Z,50.20
2018-04-18T08:00:11.441Z,50.20
2018-04-18T08:02:40.535Z,50.10
2018-04-18T08:05:09.644Z,49.30
2018-04-18T08:07:38.733Z,48.50
2018-04-18T08:10:07.815Z,48.00
2018-04-18T08:12:37.697Z,46.80
2018-04-18T08:15:06.807Z,46.70
2018-04-18T08:17:35.948Z,46.60
2018-04-18T08:20:05.843Z,48.30
2018-04-18T08:22:34.956Z,47.60
2018-04-18T08:25:04.127Z,47.30
2018-04-18T08:27:33.238Z,47.30
2018-04-18T08:30:02.342Z,47.90
2018-04-18T08:32:31.487Z,47.00
2018-04-18T08:35:00.660Z,46.20
2018-04-18T08:37:29.748Z,45.40
2018-04-18T08:39:58.869Z,44.50
2018-04-18T08:42:28.021Z,44.60
2018-04-18T08:44:57.128Z,44.60
2018-04-18T08:47:26.207Z,44.60
2018-04-18T08:49:55.317Z,44.80
2018-04-18T08:52:25.193Z,43.30
2018-04-18T08:54:54.371Z,43.30
2018-04-18T08:57:23.496Z,42.80
2018-04-18T08:59:52.601Z,42.30
2018-04-18T09:02:21.732Z,42.20
2018-04-18T09:04:50.810Z,42.80
2018-04-18T09:07:20.707Z,42.30
2018-04-18T09:09:49.846Z,42.20
2018-04-18T09:12:18.975Z,42.40
2018-04-18T09:14:48.059Z,41.30
2018-04-18T09:17:17.994Z,42.20
2018-04-18T09:19:47.834Z,42.50
2018-04-18T09:22:16.962Z,42.50
2018-04-18T09:24:46.163Z,42.00
2018-04-18T09:27:15.239Z,42.80
2018-04-18T09:29:44.352Z,41.60
2018-04-18T09:32:14.251Z,42.00
2018-04-18T09:34:43.356Z,42.00
2018-04-18T09:37:12.504Z,42.00
2018-04-18T09:39:42.450Z,41.10
2018-04-18T09:42:12.304Z,41.10
2018-04-18T09:44:41.429Z,41.00
2018-04-18T09:47:10.545Z,40.70
2018-04-18T09:49:39.622Z,41.20
2018-04-18T09:52:08.696Z,40.40
2018-04-18T09:54:37.854Z,39.50
2018-04-18T09:57:06.940Z,40.00
2018-04-18T09:59:36.778Z,39.30
2018-04-18T10:02:11.345Z,39.30
2018-04-18T10:04:45.327Z,39.00
2018-04-18T10:07:15.171Z,38.30
2018-04-18T10:09:44.327Z,38.30
2018-04-18T10:12:13.407Z,37.80
2018-04-18T10:14:42.489Z,37.80
2018-04-18T10:17:12.323Z,36.80
2018-04-18T10:19:41.402Z,36.70
2018-04-18T10:22:10.481Z,36.90
2018-04-18T10:24:39.591Z,36.40
2018-04-18T10:27:08.700Z,36.80
2018-04-18T10:29:37.813Z,36.10
2018-04-18T10:32:06.926Z,35.00
2018-04-18T10:34:36.002Z,36.00
2018-04-18T10:37:05.127Z,35.70
2018-04-18T10:39:34.249Z,34.30
2018-04-18T10:42:03.378Z,35.20
2018-04-18T10:44:32.476Z,34.60
2018-04-18T10:47:01.590Z,34.00
2018-04-18T10:49:30.747Z,33.90
2018-04-18T10:52:01.083Z,33.40
2018-04-18T10:54:30.989Z,33.40
2018-04-18T10:57:00.071Z,33.40
2018-04-18T10:59:29.183Z,32.50
2018-04-18T11:01:58.291Z,32.40
2018-04-18T11:04:27.359Z,33.00
2018-04-18T11:06:57.231Z,32.50
2018-04-18T11:09:26.344Z,32.50
2018-04-18T11:11:55.424Z,32.60
2018-04-18T11:14:24.532Z,34.00
2018-04-18T11:16:53.683Z,33.70
2018-04-18T11:19:22.796Z,32.60
2018-04-18T11:21:51.935Z,31.90
2018-04-18T11:24:21.825Z,32.20
2018-04-18T11:26:51.184Z,32.10
2018-04-18T11:29:20.336Z,32.30
2018-04-18T11:31:49.491Z,31.00
2018-04-18T11:34:19.400Z,32.20
2018-04-18T11:36:48.533Z,31.60
2018-04-18T11:39:17.659Z,32.40
2018-04-18T11:41:47.551Z,29.90
2018-04-18T11:44:16.658Z,29.90
2018-04-18T11:46:45.778Z,31.90
2018-04-18T11:49:14.911Z,30.60
2018-04-18T11:51:44.025Z,31.00
2018-04-18T11:54:13.907Z,30.00
2018-04-18T11:56:42.983Z,30.40
2018-04-18T11:59:12.088Z,29.90
2018-04-18T12:01:41.968Z,30.00
2018-04-18T12:04:11.107Z,30.00
2018-04-18T12:06:41.052Z,30.00
2018-04-18T12:09:10.895Z,29.80
2018-04-18T12:11:40.792Z,29.20
2018-04-18T12:14:09.895Z,29.20
2018-04-18T12:16:38.976Z,29.30
2018-04-18T12:19:08.052Z,30.20
2018-04-18T12:21:37.898Z,29.80
2018-04-18T12:24:06.969Z,29.80
2018-04-18T12:26:36.140Z,29.30
2018-04-18T12:29:05.240Z,29.60
2018-04-18T12:31:34.319Z,29.60
2018-04-18T12:34:04.181Z,28.90
2018-04-18T12:36:33.267Z,28.90
2018-04-18T12:39:02.392Z,29.40
2018-04-18T12:41:31.497Z,29.10
2018-04-18T12:44:00.600Z,29.00
2018-04-18T12:46:29.677Z,29.20
2018-04-18T12:48:58.858Z,28.70
2018-04-18T12:51:27.944Z,29.30
2018-04-18T12:53:57.084Z,29.30
2018-04-18T12:56:26.202Z,28.70
2018-04-18T12:58:55.287Z,28.70
2018-04-18T13:01:24.383Z,28.80
2018-04-18T13:03:54.233Z,28.60
2018-04-18T13:06:23.415Z,28.10
2018-04-18T13:08:53.260Z,29.30
2018-04-18T13:11:22.373Z,29.20
2018-04-18T13:13:51.545Z,27.80
2018-04-18T13:16:21.412Z,27.70
2018-04-18T13:18:50.520Z,27.70
2018-04-18T13:21:19.679Z,26.90
2018-04-18T13:23:48.775Z,26.70
2018-04-18T13:26:17.844Z,26.90
2018-04-18T13:28:46.984Z,26.90
2018-04-18T13:31:16.093Z,26.70
2018-04-18T13:33:45.211Z,27.40
2018-04-18T13:36:14.352Z,27.30
2018-04-18T13:38:44.207Z,26.20
2018-04-18T13:41:13.346Z,26.20
2018-04-18T13:43:42.419Z,25.40
2018-04-18T13:46:12.293Z,25.30
2018-04-18T13:48:41.398Z,25.20
2018-04-18T13:51:11.265Z,25.00
2018-04-18T13:53:41.136Z,24.70
2018-04-18T13:56:10.236Z,24.70
2018-04-18T13:58:39.332Z,23.50
2018-04-18T14:01:08.431Z,23.60
2018-04-18T14:03:37.600Z,23.70
2018-04-18T14:06:06.683Z,23.60
2018-04-18T14:08:35.809Z,23.40
2018-04-18T14:11:04.913Z,22.50
2018-04-18T14:13:34.055Z,23.10
2018-04-18T14:16:03.208Z,23.70
2018-04-18T14:18:32.285Z,23.90
2018-04-18T14:21:01.372Z,25.10
2018-04-18T14:23:30.431Z,24.90
2018-04-18T14:26:00.309Z,24.50
2018-04-18T14:28:29.413Z,24.50
2018-04-18T14:30:58.560Z,25.00
2018-04-18T14:33:27.624Z,24.50
2018-04-18T14:35:56.715Z,24.30
2018-04-18T14:38:25.853Z,24.20
2018-04-18T14:40:54.920Z,24.00
2018-04-18T14:43:24.779Z,24.40
2018-04-18T14:45:53.914Z,24.40
2018-04-18T14:48:22.976Z,23.70
2018-04-18T14:50:52.811Z,24.00
2018-04-18T14:53:21.917Z,23.90
2018-04-18T14:55:50.998Z,23.80
2018-04-18T14:58:20.872Z,25.80
2018-04-18T15:00:49.984Z,25.20
2018-04-18T15:03:19.080Z,24.80
2018-04-18T15:05:48.549Z,23.90
2018-04-18T15:08:17.652Z,24.10
2018-04-18T15:10:46.787Z,24.00
2018-04-18T15:13:15.884Z,24.10
2018-04-18T15:15:45.052Z,22.80
2018-04-18T15:18:14.156Z,22.80
2018-04-18T15:20:43.227Z,23.30
2018-04-18T15:23:12.334Z,23.20
2018-04-18T15:25:41.411Z,23.50
2018-04-18T15:28:10.478Z,24.00
2018-04-18T15:30:40.345Z,24.60
2018-04-18T15:33:09.420Z,24.50
2018-04-18T15:35:39.251Z,24.50
2018-04-18T15:38:09.130Z,24.50
2018-04-18T15:40:38.207Z,24.50
2018-04-18T15:43:07.344Z,25.20
2018-04-18T15:45:36.418Z,24.60
2018-04-18T15:48:05.487Z,24.60
2018-04-18T15:50:34.580Z,24.80
2018-04-18T15:53:03.671Z,24.80
2018-04-18T15:55:32.801Z,23.90
2018-04-18T15:58:01.896Z,24.10
2018-04-18T16:00:31.001Z,24.20
2018-04-18T16:03:00.134Z,23.80
2018-04-18T16:05:29.252Z,24.40
2018-04-18T16:07:58.352Z,24.30
2018-04-18T16:10:27.488Z,24.40
2018-04-18T16:12:56.594Z,24.40
2018-04-18T16:15:25.668Z,24.40
2018-04-18T16:17:54.796Z,24.20
2018-04-18T16:20:23.871Z,24.50
2018-04-18T16:22:53.043Z,24.80
2018-04-18T16:25:22.919Z,24.90
2018-04-18T16:27:52.011Z,24.90
2018-04-18T16:30:38.909Z,25.40
2018-04-18T16:33:08.735Z,25.40
2018-04-18T16:35:37.937Z,25.30
2018-04-18T16:38:07.022Z,25.40
2018-04-18T16:40:36.142Z,26.00
2018-04-18T16:43:05.245Z,25.60
2018-04-18T16:45:34.364Z,25.90
2018-04-18T16:48:03.469Z,25.90
2018-04-18T16:50:32.606Z,25.80
2018-04-18T16:53:01.735Z,25.80
2018-04-18T16:55:31.610Z,26.00
2018-04-18T16:58:00.770Z,25.90
2018-04-18T17:00:30.632Z,26.70
2018-04-18T17:02:59.741Z,26.70
2018-04-18T17:05:28.809Z,26.80
2018-04-18T17:07:57.900Z,26.40
2018-04-18T17:10:26.971Z,26.90
2018-04-18T17:12:56.128Z,26.80
2018-04-18T17:15:25.208Z,27.20
2018-04-18T17:17:54.267Z,27.70
2018-04-18T17:20:24.092Z,28.00
2018-04-18T17:22:53.921Z,28.10
2018-04-18T17:25:23.838Z,28.30
2018-04-18T17:27:52.937Z,28.30
2018-04-18T17:30:22.036Z,28.50
2018-04-18T17:32:51.900Z,28.90
2018-04-18T17:35:21.774Z,28.80
2018-04-18T17:37:50.933Z,28.80
2018-04-18T17:40:20.804Z,29.10
2018-04-18T17:42:49.905Z,29.10
2018-04-18T17:45:18.990Z,29.60
2018-04-18T17:47:48.848Z,30.00
2018-04-18T17:50:17.940Z,30.00
2018-04-18T17:52:47.005Z,30.20
2018-04-18T17:55:16.074Z,30.10
2018-04-18T17:57:45.181Z,30.60
2018-04-18T18:00:14.332Z,31.00
2018-04-18T18:02:43.518Z,31.40
2018-04-18T18:05:12.611Z,31.80
2018-04-18T18:07:41.688Z,32.10
2018-04-18T18:10:10.760Z,32.30
2018-04-18T18:12:39.854Z,32.20
2018-04-18T18:15:08.960Z,33.00
2018-04-18T18:17:38.101Z,34.10
2018-04-18T18:20:07.170Z,34.80
2018-04-18T18:22:36.272Z,34.30
2018-04-18T18:25:05.593Z,35.50
2018-04-18T18:27:34.713Z,35.70
2018-04-18T18:30:03.823Z,36.10
2018-04-18T18:32:32.926Z,36.00
2018-04-18T18:35:02.015Z,35.90
2018-04-18T18:37:32.075Z,36.50
2018-04-18T18:40:01.177Z,36.40
2018-04-18T18:42:30.268Z,36.60
2018-04-18T18:45:00.135Z,36.70
2018-04-18T18:47:29.248Z,36.60
2018-04-18T18:49:58.359Z,36.60
2018-04-18T18:52:27.456Z,36.80
2018-04-18T18:54:56.550Z,37.20
2018-04-18T18:57:26.419Z,38.00
2018-04-18T18:59:55.495Z,38.60
2018-04-18T19:02:24.603Z,38.10
2018-04-18T19:04:53.679Z,38.50
2018-04-18T19:07:22.798Z,39.50
2018-04-18T19:09:52.634Z,40.30
2018-04-18T19:12:22.553Z,39.80
2018-04-18T19:14:52.443Z,40.20
2018-04-18T19:17:22.319Z,40.30
2018-04-18T19:19:53.068Z,40.60
2018-04-18T19:22:22.966Z,40.60
2018-04-18T19:24:52.086Z,40.60
2018-04-18T19:27:22.301Z,40.40
2018-04-18T19:29:51.444Z,40.90
2018-04-18T19:32:20.514Z,41.50
2018-04-18T19:34:49.645Z,41.20
2018-04-18T19:37:18.719Z,40.20
2018-04-18T19:39:47.820Z,40.30
2018-04-18T19:42:17.180Z,40.20
2018-04-18T19:44:46.263Z,40.20
2018-04-18T19:47:15.364Z,40.30
2018-04-18T19:49:44.472Z,40.30
2018-04-18T19:52:13.554Z,40.50
2018-04-18T19:54:43.436Z,42.10
2018-04-18T19:57:12.600Z,42.10
2018-04-18T19:59:42.483Z,43.90
2018-04-18T20:02:11.563Z,43.90
2018-04-18T20:04:40.704Z,43.80
2018-04-18T20:07:09.785Z,42.90
2018-04-18T20:09:38.861Z,43.60
2018-04-18T20:12:08.708Z,45.60
2018-04-18T20:14:37.885Z,45.60
2018-04-18T20:17:06.964Z,46.60
2018-04-18T20:19:36.076Z,46.80
2018-04-18T20:22:05.191Z,49.00
2018-04-18T20:24:34.272Z,50.60
2018-04-18T20:27:03.400Z,50.30
2018-04-18T20:29:32.483Z,50.60
2018-04-18T20:32:01.774Z,50.40
2018-04-18T20:34:31.644Z,50.10
2018-04-18T20:37:00.761Z,50.10
2018-04-18T20:39:29.851Z,48.70
2018-04-18T20:41:58.947Z,48.10
2018-04-18T20:44:28.815Z,47.30
2018-04-18T20:46:57.975Z,47.30
2018-04-18T20:49:27.816Z,47.30
2018-04-18T20:51:56.925Z,47.20
2018-04-18T20:54:26.051Z,48.80
2018-04-18T20:56:55.139Z,49.20
2018-04-18T20:59:25.025Z,49.00
2018-04-18T21:01:54.125Z,48.90
2018-04-18T21:04:23.233Z,49.70
2018-04-18T21:06:52.319Z,50.70
2018-04-18T21:09:21.495Z,50.60
2018-04-18T21:11:51.335Z,51.70
2018-04-18T21:14:21.256Z,53.80
2018-04-18T21:16:51.141Z,53.50
2018-04-18T21:19:20.345Z,53.40
2018-04-18T21:21:49.461Z,55.10
2018-04-18T21:24:18.541Z,54.00
2018-04-18T21:26:47.652Z,54.10
2018-04-18T21:29:16.732Z,54.30
2018-04-18T21:31:45.907Z,53.90
2018-04-18T21:34:14.979Z,53.90
2018-04-18T21:36:44.063Z,52.20
2018-04-18T21:39:13.945Z,51.50
2018-04-18T21:41:43.028Z,51.50
2018-04-18T21:44:12.126Z,51.90
2018-04-18T21:46:41.972Z,52.80
2018-04-18T21:49:11.420Z,52.60
2018-04-18T21:51:40.489Z,53.60
2018-04-18T21:54:09.567Z,54.40
2018-04-18T21:56:38.676Z,55.00
2018-04-18T21:59:07.769Z,55.40
2018-04-18T22:01:36.880Z,56.00
2018-04-18T22:04:05.963Z,55.70
2018-04-18T22:06:35.128Z,55.70
2018-04-18T22:09:05.019Z,55.20
2018-04-18T22:11:34.343Z,55.20
2018-04-18T22:14:03.493Z,54.30
2018-04-18T22:16:33.386Z,54.50
2018-04-18T22:19:02.470Z,54.50
2018-04-18T22:21:31.583Z,54.60
2018-04-18T22:24:00.669Z,54.60
2018-04-18T22:26:29.776Z,55.20
2018-04-18T22:28:58.883Z,55.20
2018-04-18T22:31:28.044Z,54.20
2018-04-18T22:33:57.891Z,57.50
2018-04-18T22:36:26.997Z,58.00
2018-04-18T22:38:56.112Z,57.40
2018-04-18T22:41:25.200Z,57.20
2018-04-18T22:43:54.326Z,57.50
2018-04-18T22:46:23.481Z,57.30
2018-04-18T22:48:52.592Z,57.90
2018-04-18T22:51:21.747Z,58.30
2018-04-18T22:53:50.827Z,58.10
2018-04-18T22:56:19.937Z,58.40
2018-04-18T22:58:49.052Z,58.60
2018-04-18T23:01:18.138Z,58.80
2018-04-18T23:03:48.236Z,60.50
2018-04-18T23:06:17.345Z,60.50
2018-04-18T23:08:46.559Z,60.70
2018-04-18T23:11:15.635Z,60.90
2018-04-18T23:13:44.749Z,60.80
2018-04-18T23:16:13.903Z,60.60
2018-04-18T23:18:43.022Z,60.90
2018-04-18T23:21:12.873Z,60.90
2018-04-18T23:23:41.980Z,60.80
2018-04-18T23:26:11.127Z,60.80
2018-04-18T23:28:40.236Z,60.80
2018-04-18T23:31:09.391Z,60.70
2018-04-18T23:33:38.501Z,61.00
2018-04-18T23:36:08.512Z,61.10
2018-04-18T23:38:37.600Z,61.00
2018-04-18T23:41:06.675Z,61.00
2018-04-18T23:43:35.791Z,61.90
2018-04-18T23:46:04.862Z,62.00
2018-04-18T23:48:33.943Z,61.90
2018-04-18T23:51:03.048Z,62.60
2018-04-18T23:53:32.131Z,62.30
2018-04-18T23:56:01.213Z,62.30
2018-04-18T23:58:30.291Z,63.00
